createdAt,value
2023-08-03T00:00:22.113Z,19.15
2023-08-03T00:02:48.876Z,19.14
2023-08-03T00:05:20.150Z,18.90
2023-08-03T00:07:47.634Z,18.53
2023-08-03T00:10:14.246Z,18.54
2023-08-03T00:12:41.129Z,18.78
2023-08-03T00:15:07.808Z,19.05
2023-08-03T00:17:34.066Z,18.96
2023-08-03T00:20:01.271Z,18.93
2023-08-03T00:22:27.423Z,18.81
2023-08-03T00:24:54.039Z,19.06
2023-08-03T00:27:20.261Z,19.18
2023-08-03T00:29:46.429Z,19.12
2023-08-03T00:32:12.555Z,19.19
2023-08-03T00:34:38.797Z,18.96
2023-08-03T00:37:05.077Z,19.07
2023-08-03T00:39:31.284Z,19.13
2023-08-03T00:41:57.510Z,19.23
2023-08-03T00:44:23.681Z,19.02
2023-08-03T00:46:49.865Z,19.03
2023-08-03T00:49:16.122Z,18.69
2023-08-03T00:51:42.623Z,18.79
2023-08-03T00:54:09.141Z,18.79
2023-08-03T00:56:36.092Z,19.16
2023-08-03T00:59:07.352Z,19.07
2023-08-03T01:01:33.558Z,19.06
2023-08-03T01:03:59.778Z,19.00
2023-08-03T01:06:26.089Z,18.68
2023-08-03T01:08:52.395Z,18.93
2023-08-03T01:11:18.579Z,18.80
2023-08-03T01:13:44.962Z,18.47
2023-08-03T01:16:11.556Z,18.51
2023-08-03T01:18:38.417Z,18.46
2023-08-03T01:21:06.820Z,18.31
2023-08-03T01:23:33.495Z,18.42
2023-08-03T01:25:59.635Z,18.43
2023-08-03T01:28:25.906Z,18.76
2023-08-03T01:30:52.258Z,18.70
2023-08-03T01:33:18.665Z,18.88
2023-08-03T01:35:44.936Z,18.85
2023-08-03T01:38:14.126Z,18.36
2023-08-03T01:40:41.666Z,18.78
2023-08-03T01:43:08.011Z,18.62
2023-08-03T01:45:34.571Z,18.02
2023-08-03T01:48:00.849Z,18.41
2023-08-03T01:50:26.990Z,18.21
2023-08-03T01:52:53.143Z,18.45
2023-08-03T01:55:19.351Z,18.38
2023-08-03T01:57:45.514Z,18.52
2023-08-03T02:00:12.391Z,18.59
2023-08-03T02:02:38.593Z,18.53
2023-08-03T02:05:06.824Z,18.52
2023-08-03T02:07:55.960Z,18.28
2023-08-03T02:10:23.802Z,18.40
2023-08-03T02:12:50.815Z,18.16
2023-08-03T02:15:17.100Z,18.43
2023-08-03T02:17:44.031Z,18.51
2023-08-03T02:20:11.069Z,18.70
2023-08-03T02:22:37.355Z,18.56
2023-08-03T02:25:03.802Z,18.47
2023-08-03T02:27:30.162Z,18.63
2023-08-03T02:29:56.308Z,18.55
2023-08-03T02:32:22.496Z,18.53
2023-08-03T02:34:49.014Z,18.37
2023-08-03T02:37:15.358Z,18.36
2023-08-03T02:39:41.640Z,18.54
2023-08-03T02:42:07.792Z,18.51
2023-08-03T02:44:33.938Z,18.26
2023-08-03T02:47:00.119Z,18.47
2023-08-03T02:49:26.299Z,18.38
2023-08-03T02:51:52.451Z,18.34
2023-08-03T02:54:18.801Z,18.51
2023-08-03T02:56:44.966Z,18.42
2023-08-03T02:59:11.429Z,18.48
2023-08-03T03:01:37.618Z,18.15
2023-08-03T03:04:04.035Z,18.37
2023-08-03T03:06:30.337Z,18.22
2023-08-03T03:08:56.559Z,18.33
2023-08-03T03:11:22.790Z,18.26
2023-08-03T03:13:48.937Z,17.98
2023-08-03T03:16:15.117Z,18.17
2023-08-03T03:18:41.395Z,18.37
2023-08-03T03:21:07.551Z,18.41
2023-08-03T03:23:33.707Z,18.72
2023-08-03T03:25:59.854Z,18.45
2023-08-03T03:28:26.009Z,18.34
2023-08-03T03:30:52.180Z,17.94
2023-08-03T03:33:18.360Z,18.35
2023-08-03T03:35:44.467Z,18.18
2023-08-03T03:38:10.593Z,18.50
2023-08-03T03:40:36.748Z,18.39
2023-08-03T03:43:02.921Z,18.60
2023-08-03T03:45:29.878Z,18.50
2023-08-03T03:47:56.494Z,18.30
2023-08-03T03:50:22.738Z,18.64
2023-08-03T03:52:48.950Z,18.41
2023-08-03T03:55:15.121Z,18.09
2023-08-03T03:57:41.315Z,18.43
2023-08-03T04:00:08.300Z,18.28
2023-08-03T04:02:34.514Z,18.35
2023-08-03T04:05:00.713Z,18.50
2023-08-03T04:07:26.846Z,18.43
2023-08-03T04:09:52.988Z,18.59
2023-08-03T04:12:19.141Z,18.72
2023-08-03T04:14:45.317Z,18.16
2023-08-03T04:17:11.589Z,15.30
2023-08-03T04:19:37.776Z,18.49
2023-08-03T04:22:04.097Z,18.44
2023-08-03T04:24:31.172Z,18.23
2023-08-03T04:26:57.356Z,18.48
2023-08-03T04:29:23.524Z,19.14
2023-08-03T04:31:49.756Z,18.98
2023-08-03T04:34:15.940Z,18.76
2023-08-03T04:36:43.501Z,18.54
2023-08-03T04:39:09.659Z,18.32
2023-08-03T04:41:35.901Z,18.80
2023-08-03T04:44:02.210Z,18.80
2023-08-03T04:46:28.352Z,18.54
2023-08-03T04:48:54.580Z,18.43
2023-08-03T04:51:20.794Z,18.52
2023-08-03T04:53:47.239Z,17.60
2023-08-03T04:56:13.447Z,18.68
2023-08-03T04:58:39.693Z,15.42
2023-08-03T05:01:05.861Z,18.77
2023-08-03T05:03:32.413Z,18.42
2023-08-03T05:05:58.601Z,18.42
2023-08-03T05:08:25.382Z,18.38
2023-08-03T05:10:51.680Z,18.40
2023-08-03T05:13:18.282Z,18.11
2023-08-03T05:15:45.288Z,18.37
2023-08-03T05:18:11.511Z,18.20
2023-08-03T05:20:37.808Z,18.47
2023-08-03T05:23:05.898Z,15.37
2023-08-03T05:25:32.075Z,18.63
2023-08-03T05:27:58.305Z,18.39
2023-08-03T05:30:24.451Z,18.11
2023-08-03T05:32:50.744Z,18.33
2023-08-03T05:35:17.232Z,18.22
2023-08-03T05:37:43.373Z,18.20
2023-08-03T05:40:09.969Z,17.20
2023-08-03T05:42:40.478Z,18.58
2023-08-03T05:45:15.210Z,18.59
2023-08-03T05:47:41.471Z,18.19
2023-08-03T05:50:13.825Z,17.88
2023-08-03T05:52:40.400Z,18.35
2023-08-03T05:55:10.444Z,18.41
2023-08-03T05:57:36.633Z,18.31
2023-08-03T06:00:05.399Z,18.22
2023-08-03T06:02:36.127Z,18.23
2023-08-03T06:05:02.398Z,18.27
2023-08-03T06:07:28.606Z,18.53
2023-08-03T06:09:54.868Z,18.70
2023-08-03T06:12:21.041Z,18.54
2023-08-03T06:14:47.248Z,18.57
2023-08-03T06:17:14.126Z,18.80
2023-08-03T06:19:40.852Z,19.01
2023-08-03T06:22:17.412Z,18.79
2023-08-03T06:24:43.575Z,18.48
2023-08-03T06:27:11.873Z,18.60
2023-08-03T06:29:38.614Z,18.78
2023-08-03T06:32:06.284Z,18.68
2023-08-03T06:34:33.771Z,18.50
2023-08-03T06:37:00.102Z,18.93
2023-08-03T06:39:26.301Z,18.40
2023-08-03T06:41:53.248Z,18.86
2023-08-03T06:44:19.437Z,18.57
2023-08-03T06:46:46.794Z,17.79
2023-08-03T06:49:12.995Z,18.74
2023-08-03T06:51:39.924Z,18.93
2023-08-03T06:54:06.188Z,19.13
2023-08-03T06:56:32.917Z,18.61
2023-08-03T06:58:59.201Z,19.02
2023-08-03T07:01:25.481Z,19.38
2023-08-03T07:03:51.818Z,19.08
2023-08-03T07:06:18.100Z,18.96
2023-08-03T07:08:44.270Z,18.61
2023-08-03T07:11:10.446Z,18.97
2023-08-03T07:13:36.632Z,19.27
2023-08-03T07:16:09.344Z,19.04
2023-08-03T07:18:35.624Z,18.84
2023-08-03T07:21:05.601Z,19.31
2023-08-03T07:23:32.648Z,18.82
2023-08-03T07:25:59.393Z,19.03
2023-08-03T07:28:25.567Z,18.77
2023-08-03T07:30:51.807Z,18.88
2023-08-03T07:33:18.004Z,18.60
2023-08-03T07:35:44.208Z,18.72
2023-08-03T07:38:10.437Z,18.86
2023-08-03T07:40:38.437Z,18.86
2023-08-03T07:43:04.703Z,18.82
2023-08-03T07:48:00.125Z,16.80
2023-08-03T07:50:26.924Z,18.78
2023-08-03T07:52:53.121Z,18.78
2023-08-03T07:55:19.392Z,19.12
2023-08-03T07:57:45.643Z,19.31
2023-08-03T08:00:12.496Z,19.62
2023-08-03T08:02:38.683Z,19.52
2023-08-03T08:05:05.436Z,19.70
2023-08-03T08:07:31.656Z,19.37
2023-08-03T08:09:57.784Z,19.76
2023-08-03T08:12:23.973Z,19.79
2023-08-03T08:14:50.160Z,20.07
2023-08-03T08:17:16.383Z,19.58
2023-08-03T08:19:42.724Z,19.73
2023-08-03T08:22:15.766Z,20.02
2023-08-03T08:24:43.355Z,20.08
2023-08-03T08:27:09.786Z,19.91
2023-08-03T08:29:36.023Z,20.08
2023-08-03T08:32:02.909Z,19.47
2023-08-03T08:34:32.103Z,19.77
2023-08-03T08:36:58.891Z,20.10
2023-08-03T08:39:25.592Z,20.02
2023-08-03T08:41:51.846Z,19.52
2023-08-03T08:44:18.085Z,19.63
2023-08-03T08:46:44.684Z,18.29
2023-08-03T08:51:59.258Z,19.69
2023-08-03T08:57:07.024Z,19.79
2023-08-03T08:59:37.117Z,19.75
2023-08-03T09:02:03.613Z,19.69
2023-08-03T09:04:35.472Z,19.51
2023-08-03T09:07:03.191Z,19.70
2023-08-03T09:09:35.144Z,19.93
2023-08-03T09:12:01.586Z,19.57
2023-08-03T09:14:28.313Z,19.24
2023-08-03T09:16:54.697Z,19.73
2023-08-03T09:25:01.143Z,19.69
2023-08-03T09:30:01.192Z,19.81
2023-08-03T09:32:31.967Z,19.75
2023-08-03T09:34:58.443Z,20.06
2023-08-03T09:40:06.252Z,20.31
2023-08-03T09:45:02.256Z,20.29
2023-08-03T09:47:29.918Z,20.22
2023-08-03T09:49:57.448Z,20.21
2023-08-03T09:55:07.282Z,20.05
2023-08-03T09:57:38.368Z,16.95
2023-08-03T10:00:08.515Z,20.20
2023-08-03T10:02:45.225Z,20.45
2023-08-03T10:05:20.861Z,20.40
2023-08-03T10:07:57.132Z,20.12
2023-08-03T10:10:24.674Z,20.33
2023-08-03T10:12:59.378Z,20.58
2023-08-03T10:15:25.997Z,20.35
2023-08-03T10:17:53.060Z,20.45
2023-08-03T10:20:20.494Z,20.51
2023-08-03T10:23:09.345Z,20.59
2023-08-03T10:25:51.868Z,20.56
2023-08-03T10:28:18.564Z,20.54
2023-08-03T10:31:07.602Z,20.55
2023-08-03T10:33:52.600Z,20.67
2023-08-03T10:36:31.020Z,20.32
2023-08-03T10:39:04.546Z,20.66
2023-08-03T10:41:36.880Z,20.61
2023-08-03T10:44:06.169Z,20.70
2023-08-03T10:46:58.765Z,19.79
2023-08-03T10:49:25.157Z,20.88
2023-08-03T10:51:56.281Z,19.24
2023-08-03T10:54:29.228Z,20.58
2023-08-03T10:57:06.372Z,20.61
2023-08-03T10:59:39.999Z,19.88
2023-08-03T11:02:12.965Z,20.83
2023-08-03T11:04:40.188Z,21.00
2023-08-03T11:07:09.212Z,21.27
2023-08-03T11:09:35.774Z,21.56
2023-08-03T11:12:03.827Z,21.51
2023-08-03T11:14:30.131Z,20.98
2023-08-03T11:16:56.456Z,21.51
2023-08-03T11:19:23.370Z,21.55
2023-08-03T11:21:49.588Z,21.36
2023-08-03T11:24:15.809Z,21.28
2023-08-03T11:26:42.979Z,18.18
2023-08-03T11:29:10.043Z,21.54
2023-08-03T11:31:36.322Z,21.62
2023-08-03T11:34:02.638Z,21.70
2023-08-03T11:36:28.877Z,21.72
2023-08-03T11:38:55.115Z,21.47
2023-08-03T11:43:56.391Z,21.49
2023-08-03T11:46:29.019Z,21.19
2023-08-03T11:48:59.274Z,21.35
2023-08-03T11:51:32.919Z,21.39
2023-08-03T11:54:06.954Z,21.37
2023-08-03T11:56:45.768Z,21.42
2023-08-03T11:59:12.176Z,21.28
2023-08-03T12:01:49.520Z,21.33
2023-08-03T12:04:17.468Z,21.41
2023-08-03T12:06:51.249Z,21.09
2023-08-03T12:09:24.523Z,20.64
2023-08-03T12:11:50.806Z,21.02
2023-08-03T12:14:17.980Z,20.71
2023-08-03T12:16:44.488Z,20.62
2023-08-03T12:19:13.507Z,20.74
2023-08-03T12:21:40.376Z,21.23
2023-08-03T12:24:09.943Z,21.23
2023-08-03T12:26:37.165Z,21.01
2023-08-03T12:31:34.155Z,19.98
2023-08-03T12:34:00.495Z,21.14
2023-08-03T12:36:27.113Z,20.92
2023-08-03T12:38:54.003Z,21.04
2023-08-03T12:41:20.595Z,20.67
2023-08-03T12:43:47.541Z,20.24
2023-08-03T12:46:14.351Z,21.34
2023-08-03T12:48:40.715Z,21.60
2023-08-03T12:51:06.930Z,21.82
2023-08-03T12:53:33.218Z,20.85
2023-08-03T12:55:59.473Z,21.54
2023-08-03T12:58:25.676Z,21.25
2023-08-03T13:00:51.975Z,21.26
2023-08-03T13:03:18.816Z,21.15
2023-08-03T13:05:46.162Z,21.52
2023-08-03T13:08:13.113Z,21.94
2023-08-03T13:10:40.524Z,21.49
2023-08-03T13:13:07.582Z,21.43
2023-08-03T13:15:33.774Z,20.86
2023-08-03T13:18:00.899Z,21.90
2023-08-03T13:20:27.549Z,22.21
2023-08-03T13:22:53.797Z,22.03
2023-08-03T13:25:20.121Z,22.14
2023-08-03T13:27:47.051Z,22.73
2023-08-03T13:30:14.605Z,22.48
2023-08-03T13:32:44.622Z,22.73
2023-08-03T13:35:10.898Z,22.92
2023-08-03T13:37:37.067Z,22.89
2023-08-03T13:40:03.569Z,23.06
2023-08-03T13:42:29.866Z,21.95
2023-08-03T13:44:56.083Z,22.30
2023-08-03T13:47:22.606Z,22.15
2023-08-03T13:49:48.857Z,22.19
2023-08-03T13:52:15.092Z,22.92
2023-08-03T13:54:41.251Z,22.91
2023-08-03T13:57:09.095Z,22.69
2023-08-03T13:59:35.498Z,22.06
2023-08-03T14:02:02.797Z,21.98
2023-08-03T14:04:32.588Z,22.04
2023-08-03T14:09:28.587Z,21.48
2023-08-03T14:16:55.310Z,21.56
2023-08-03T14:19:25.201Z,21.88
2023-08-03T14:21:54.001Z,21.60
2023-08-03T14:26:50.495Z,21.74
2023-08-03T14:29:17.902Z,21.65
2023-08-03T14:31:44.434Z,21.51
2023-08-03T14:34:10.849Z,21.76
2023-08-03T14:36:37.047Z,21.86
2023-08-03T14:39:04.496Z,21.11
2023-08-03T14:44:04.837Z,21.06
2023-08-03T14:46:31.976Z,20.59
2023-08-03T14:49:09.859Z,20.88
2023-08-03T14:54:08.022Z,21.20
2023-08-03T14:56:34.425Z,20.66
2023-08-03T14:59:01.874Z,21.17
2023-08-03T15:01:28.745Z,21.38
2023-08-03T15:03:55.349Z,21.61
2023-08-03T15:06:24.366Z,21.59
2023-08-03T15:08:52.025Z,21.13
2023-08-03T15:11:18.287Z,21.06
2023-08-03T15:13:45.563Z,21.35
2023-08-03T15:18:54.207Z,21.34
2023-08-03T15:21:22.845Z,21.27
2023-08-03T15:23:54.098Z,21.34
2023-08-03T15:26:25.726Z,21.20
2023-08-03T15:28:58.340Z,20.23
2023-08-03T15:31:26.093Z,21.37
2023-08-03T15:33:53.958Z,20.06
2023-08-03T15:36:35.050Z,21.56
2023-08-03T15:39:04.127Z,21.38
2023-08-03T15:41:31.481Z,21.68
2023-08-03T15:44:02.185Z,22.27
2023-08-03T15:46:37.564Z,21.16
2023-08-03T15:49:13.156Z,21.78
2023-08-03T15:51:47.094Z,21.49
2023-08-03T15:54:19.655Z,21.04
2023-08-03T15:56:47.540Z,21.59
2023-08-03T15:59:14.543Z,21.20
2023-08-03T16:01:40.773Z,21.43
2023-08-03T16:04:07.074Z,21.18
2023-08-03T16:06:33.326Z,21.27
2023-08-03T16:08:59.497Z,21.19
2023-08-03T16:11:39.757Z,21.14
2023-08-03T16:14:12.393Z,21.21
2023-08-03T16:16:39.300Z,20.99
2023-08-03T16:19:05.573Z,21.30
2023-08-03T16:21:31.796Z,21.11
2023-08-03T16:23:58.052Z,21.06
2023-08-03T16:26:24.223Z,21.15
2023-08-03T16:28:50.386Z,20.95
2023-08-03T16:31:18.958Z,19.94
2023-08-03T16:33:46.303Z,21.47
2023-08-03T16:36:17.032Z,21.54
2023-08-03T16:38:44.438Z,21.42
2023-08-03T16:41:10.750Z,21.49
2023-08-03T16:43:37.684Z,21.41
2023-08-03T16:46:04.130Z,21.33
2023-08-03T16:48:39.614Z,21.51
2023-08-03T16:51:07.134Z,21.10
2023-08-03T16:53:33.439Z,20.97
2023-08-03T16:55:59.599Z,20.29
2023-08-03T16:58:25.825Z,20.66
2023-08-03T17:00:52.586Z,21.04
2023-08-03T17:03:24.228Z,20.84
2023-08-03T17:05:52.920Z,21.02
2023-08-03T17:08:19.303Z,20.98
2023-08-03T17:10:45.850Z,21.13
2023-08-03T17:13:19.816Z,20.90
2023-08-03T17:15:46.045Z,20.69
2023-08-03T17:18:12.685Z,20.15
2023-08-03T17:20:38.851Z,20.73
2023-08-03T17:23:05.030Z,19.75
2023-08-03T17:25:31.252Z,20.58
2023-08-03T17:27:57.440Z,20.46
2023-08-03T17:30:23.725Z,20.86
2023-08-03T17:32:49.905Z,20.80
2023-08-03T17:35:17.595Z,20.88
2023-08-03T17:37:43.920Z,20.75
2023-08-03T17:40:11.460Z,20.65
2023-08-03T17:42:38.803Z,20.76
2023-08-03T17:45:05.479Z,20.69
2023-08-03T17:47:31.620Z,20.65
2023-08-03T17:49:58.420Z,20.58
2023-08-03T17:52:24.602Z,20.48
2023-08-03T17:54:50.779Z,20.77
2023-08-03T17:57:16.993Z,21.03
2023-08-03T17:59:43.154Z,20.60
2023-08-03T18:02:09.331Z,20.98
2023-08-03T18:04:35.787Z,21.01
2023-08-03T18:07:02.417Z,21.19
2023-08-03T18:09:28.988Z,21.32
2023-08-03T18:11:55.692Z,20.82
2023-08-03T18:14:21.842Z,20.77
2023-08-03T18:16:48.225Z,20.75
2023-08-03T18:19:14.775Z,20.97
2023-08-03T18:21:41.765Z,21.35
2023-08-03T18:24:09.174Z,21.02
2023-08-03T18:26:35.336Z,21.04
2023-08-03T18:29:01.543Z,21.08
2023-08-03T18:31:27.738Z,20.83
2023-08-03T18:33:54.117Z,20.94
2023-08-03T18:36:20.600Z,20.91
2023-08-03T18:38:49.041Z,20.92
2023-08-03T18:41:19.245Z,20.59
2023-08-03T18:43:47.753Z,21.10
2023-08-03T18:46:16.219Z,20.81
2023-08-03T18:48:42.839Z,20.65
2023-08-03T18:51:10.745Z,20.80
2023-08-03T18:53:38.618Z,20.97
2023-08-03T18:56:10.209Z,21.18
2023-08-03T18:58:38.830Z,20.66
2023-08-03T19:01:06.224Z,20.87
2023-08-03T19:03:32.770Z,21.04
2023-08-03T19:06:00.680Z,21.04
2023-08-03T19:08:27.318Z,20.01
2023-08-03T19:10:53.900Z,21.08
2023-08-03T19:13:21.578Z,20.86
2023-08-03T19:15:48.234Z,20.07
2023-08-03T19:18:14.778Z,21.03
2023-08-03T19:20:41.854Z,20.45
2023-08-03T19:23:08.412Z,19.46
2023-08-03T19:25:35.171Z,20.96
2023-08-03T19:28:04.201Z,20.87
2023-08-03T19:30:34.475Z,20.63
2023-08-03T19:33:03.400Z,20.37
2023-08-03T19:35:30.365Z,20.59
2023-08-03T19:37:56.604Z,20.62
2023-08-03T19:40:22.833Z,20.58
2023-08-03T19:42:49.433Z,20.63
2023-08-03T19:45:20.631Z,20.42
2023-08-03T19:47:48.463Z,20.73
2023-08-03T20:07:46.825Z,20.61
2023-08-03T20:10:13.257Z,20.67
2023-08-03T20:12:40.353Z,20.66
2023-08-03T20:15:11.567Z,20.25
2023-08-03T20:17:38.164Z,20.49
2023-08-03T20:20:04.860Z,20.42
2023-08-03T20:22:31.884Z,20.28
2023-08-03T20:27:28.474Z,20.08
2023-08-03T20:32:28.575Z,19.87
2023-08-03T20:34:55.463Z,19.86
2023-08-03T20:37:21.759Z,19.65
2023-08-03T20:40:00.682Z,19.35
2023-08-03T20:49:55.576Z,20.07
2023-08-03T20:52:21.783Z,16.94
2023-08-03T20:54:47.934Z,20.72
2023-08-03T20:57:14.259Z,20.96
2023-08-03T20:59:40.542Z,20.90
2023-08-03T21:02:06.798Z,20.94
2023-08-03T21:07:05.400Z,19.82
2023-08-03T21:09:31.780Z,20.81
2023-08-03T21:11:57.971Z,21.00
2023-08-03T21:14:24.160Z,20.96
2023-08-03T21:16:50.409Z,21.12
2023-08-03T21:19:16.786Z,20.97
2023-08-03T21:21:43.109Z,21.09
2023-08-03T21:24:09.765Z,21.17
2023-08-03T21:26:38.829Z,20.96
2023-08-03T21:29:05.715Z,20.41
2023-08-03T21:34:03.667Z,20.91
2023-08-03T21:36:29.959Z,20.86
2023-08-03T21:38:56.453Z,20.78
2023-08-03T21:41:22.749Z,20.57
2023-08-03T21:43:49.014Z,20.19
2023-08-03T21:46:15.244Z,20.69
2023-08-03T21:48:41.518Z,20.59
2023-08-03T21:51:12.887Z,20.61
2023-08-03T21:53:39.118Z,20.15
2023-08-03T21:56:05.346Z,20.19
2023-08-03T21:58:31.547Z,20.51
2023-08-03T22:00:57.816Z,20.48
2023-08-03T22:03:24.031Z,20.69
2023-08-03T22:05:50.585Z,19.78
2023-08-03T22:08:16.998Z,20.59
2023-08-03T22:10:43.184Z,20.90
2023-08-03T22:13:09.674Z,20.69
2023-08-03T22:15:35.861Z,20.51
2023-08-03T22:18:02.158Z,20.71
2023-08-03T22:20:28.534Z,20.79
2023-08-03T22:22:54.732Z,20.61
2023-08-03T22:25:21.027Z,20.95
2023-08-03T22:27:47.180Z,20.66
2023-08-03T22:30:13.394Z,20.93
2023-08-03T22:32:39.683Z,20.85
2023-08-03T22:35:07.040Z,20.78
2023-08-03T22:37:34.142Z,20.85
2023-08-03T22:40:03.615Z,20.34
2023-08-03T22:42:30.749Z,20.44
2023-08-03T22:44:57.089Z,19.97
2023-08-03T22:47:23.428Z,20.40
2023-08-03T22:49:49.634Z,20.57
2023-08-03T22:52:15.840Z,20.34
2023-08-03T22:54:42.275Z,20.30
2023-08-03T22:57:08.478Z,20.37
2023-08-03T22:59:34.722Z,20.69
2023-08-03T23:02:00.971Z,19.92
2023-08-03T23:04:29.038Z,20.54
2023-08-03T23:06:55.598Z,20.05
2023-08-03T23:09:21.831Z,20.14
2023-08-03T23:11:48.268Z,20.66
2023-08-03T23:14:14.677Z,20.79
2023-08-03T23:16:40.878Z,20.38
2023-08-03T23:19:07.450Z,20.75
2023-08-03T23:21:33.695Z,20.59
2023-08-03T23:23:59.860Z,20.93
2023-08-03T23:26:26.058Z,20.52
2023-08-03T23:28:52.319Z,20.76
2023-08-03T23:31:18.677Z,20.77
2023-08-03T23:33:45.112Z,20.36
2023-08-03T23:36:11.292Z,20.25
2023-08-03T23:38:37.586Z,19.67
2023-08-03T23:41:03.852Z,20.03
2023-08-03T23:43:30.071Z,20.26
2023-08-03T23:45:56.260Z,20.61
2023-08-03T23:48:22.462Z,20.31
2023-08-03T23:50:48.619Z,20.04
2023-08-03T23:53:14.939Z,20.08
2023-08-03T23:55:41.119Z,20.41
2023-08-03T23:58:07.332Z,20.52
